Bangkok Bridge — 3FTZ8 — position and weather

sailwx.info

Track history (hours):
 
Tides and Currents Weather Stations Pressure Air Temp Water Temp Dewpoint Dewpoint Depression Visibility Wind Speed Wind Dir Waves Ship Positions

Bangkok Bridge

Last reported at 2017-Jun-15 13:08 UTC. Time now 2017-Jun-22 14:27 UTC.
Position N 38°10' W 125°13'.

Length 267 m; draft 11.8 m.

Type: Ship (hazmat cat A). MMSI: 353368000.

Date/timePositionNaut miles runAvg speedWind from/ knotsBaromVisibWave heightAir tempDewpointWater temp
2017-Jun-15 13:08N 38°10' W 125°13'2012.3
2017-Jun-15 11:31N 38°10' W 124°48'011.3
2017-Jun-15 11:30N 38°10' W 124°48'712.8
2017-Jun-15 11:00N 38°10' W 124°40'812.0
2017-Jun-15 10:18N 38°10' W 124°29'1011.7
2017-Jun-15 09:28N 38°10' W 124°17'1011.3
2017-Jun-15 08:34N 38°10' W 124°04'411.0
2017-Jun-15 08:14N 38°10' W 123°59'310.9
2017-Jun-15 08:00N 38°10' W 123°56'611.3
2017-Jun-15 07:30N 38°10' W 123°49'612.1
2017-Jun-15 07:00N 38°10' W 123°41'611.9
2017-Jun-15 06:30N 38°10' W 123°33'611.2
2017-Jun-15 06:00N 38°10' W 123°26'510.1
2017-Jun-15 05:30N 38°09' W 123°20'5 9.4
2017-Jun-15 05:00N 38°06' W 123°16'5 9.1
2017-Jun-15 04:30N 38°02' W 123°12'5 9.3
2017-Jun-15 04:00N 37°58' W 123°09'5 9.2
2017-Jun-15 03:30N 37°56' W 123°03'5 9.5
2017-Jun-15 03:00N 37°54' W 122°58'5 9.7
2017-Jun-15 02:30N 37°51' W 122°53'5 9.9
2017-Jun-15 02:00N 37°49' W 122°47'510.1
2017-Jun-15 01:30N 37°46' W 122°42'4 8.4
2017-Jun-15 01:00N 37°46' W 122°37'713.6
2017-Jun-15 00:30N 37°49' W 122°29'4 8.8
2017-Jun-15 00:00N 37°49' W 122°23'3 6.1
2017-Jun-14 23:30N 37°49' W 122°20'0 0.3
2017-Jun-14 23:00N 37°49' W 122°20'0 0.0
2017-Jun-14 22:30N 37°49' W 122°20'0 0.0
2017-Jun-14 22:00N 37°49' W 122°20'0 0.0
2017-Jun-14 21:30N 37°49' W 122°20'0 0.0
2017-Jun-14 21:00N 37°49' W 122°20'0 0.0
2017-Jun-14 20:30N 37°49' W 122°20'0 0.0
2017-Jun-14 20:00N 37°49' W 122°20'0 0.0
2017-Jun-14 19:30N 37°49' W 122°20'0 0.0
2017-Jun-14 19:00N 37°49' W 122°20'0 0.0
2017-Jun-14 18:30N 37°49' W 122°20'0 0.0
2017-Jun-14 18:00N 37°49' W 122°20'0 0.0
2017-Jun-14 17:30N 37°49' W 122°20'0 0.0
2017-Jun-14 17:00N 37°49' W 122°20'0 0.0
2017-Jun-14 16:30N 37°49' W 122°20'0 0.0
2017-Jun-14 16:00N 37°49' W 122°20'0 0.0
2017-Jun-14 15:30N 37°49' W 122°20'0 0.0
2017-Jun-14 15:00N 37°49' W 122°20'0 0.0
2017-Jun-14 14:00N 37°49' W 122°20'0 0.0
2017-Jun-14 13:30N 37°49' W 122°20'0 0.0
2017-Jun-14 13:00N 37°49' W 122°20'0 0.0
2017-Jun-14 12:30N 37°49' W 122°20'0 0.0
2017-Jun-14 12:00N 37°49' W 122°20'0 0.0
2017-Jun-14 11:30N 37°49' W 122°20'0 0.0
2017-Jun-14 11:00N 37°49' W 122°20'0 0.0
2017-Jun-14 10:30N 37°49' W 122°20'0 0.0
2017-Jun-14 10:00N 37°49' W 122°20'0 0.0
2017-Jun-14 09:30N 37°49' W 122°20'0 0.0
2017-Jun-14 09:00N 37°49' W 122°20'0 0.0
2017-Jun-14 08:30N 37°49' W 122°20'0 0.0
2017-Jun-14 08:00N 37°49' W 122°20'0 0.0
2017-Jun-14 07:30N 37°49' W 122°20'0 0.0
2017-Jun-14 07:00N 37°49' W 122°20'0 0.0
2017-Jun-14 06:30N 37°49' W 122°20'0 0.0
2017-Jun-14 06:00N 37°49' W 122°20'0 0.0
2017-Jun-14 05:30N 37°49' W 122°20'0 0.0
2017-Jun-14 05:00N 37°49' W 122°20'0 0.0
2017-Jun-14 04:30N 37°49' W 122°20'0 0.0
2017-Jun-14 04:00N 37°49' W 122°20'0 0.0
2017-Jun-14 03:30N 37°49' W 122°20'0 0.0
2017-Jun-14 03:00N 37°49' W 122°20'0 0.0
2017-Jun-14 02:30N 37°49' W 122°20'0 0.0
2017-Jun-14 02:00N 37°49' W 122°20'0 0.0
2017-Jun-14 01:30N 37°49' W 122°20'0 0.0
2017-Jun-14 01:00N 37°49' W 122°20'0 0.0
2017-Jun-14 00:30N 37°49' W 122°20'0 0.0
2017-Jun-14 00:00N 37°49' W 122°20'0 0.0
2017-Jun-13 23:30N 37°49' W 122°20'0 0.0
2017-Jun-13 23:00N 37°49' W 122°20'0 0.0
2017-Jun-13 22:30N 37°49' W 122°20'0 0.0
2017-Jun-13 22:00N 37°49' W 122°20'0 0.0
2017-Jun-13 21:30N 37°49' W 122°20'0 0.0
2017-Jun-13 21:00N 37°49' W 122°20'0 0.0
2017-Jun-13 20:30N 37°49' W 122°20'0 0.0
2017-Jun-13 20:00N 37°49' W 122°20'0 0.0
2017-Jun-13 19:30N 37°49' W 122°20'0 0.0
2017-Jun-13 19:00N 37°49' W 122°20'0 0.0
2017-Jun-13 18:30N 37°49' W 122°20'0 0.0
2017-Jun-13 18:00N 37°49' W 122°20'0 0.0
2017-Jun-13 17:30N 37°49' W 122°20'0 0.0
2017-Jun-13 17:00N 37°49' W 122°20'0 0.0
2017-Jun-13 16:30N 37°49' W 122°20'0 0.0
2017-Jun-13 16:00N 37°49' W 122°20'0 0.0
2017-Jun-13 15:30N 37°49' W 122°20'0 0.0
2017-Jun-13 15:00N 37°49' W 122°20'0 0.0
2017-Jun-13 14:30N 37°49' W 122°20'2 1.9
2017-Jun-13 13:30N 37°48' W 122°22'4 8.7
2017-Jun-13 13:00N 37°49' W 122°27'510.7
2017-Jun-13 12:31N 37°47' W 122°34'713.3
2017-Jun-13 12:00N 37°44' W 122°41'3 6.1
2017-Jun-13 11:30N 37°41' W 122°41'4 7.9
2017-Jun-13 11:00N 37°37' W 122°40'4 8.0
2017-Jun-13 10:30N 37°33' W 122°40'4 8.4
2017-Jun-13 10:00N 37°29' W 122°40'4 7.9
2017-Jun-13 09:30N 37°25' W 122°40'4 7.8
2017-Jun-13 09:00N 37°21' W 122°40'4 7.3
2017-Jun-13 08:30N 37°17' W 122°40'4 7.5
2017-Jun-13 08:00N 37°14' W 122°40'4 8.1
2017-Jun-13 07:30N 37°09' W 122°40'4 8.0
2017-Jun-13 07:00N 37°06' W 122°39'4 8.2
2017-Jun-13 06:30N 37°02' W 122°37'4 8.5
2017-Jun-13 06:00N 36°58' W 122°35'4 8.8
2017-Jun-13 05:30N 36°54' W 122°33'5 8.9
2017-Jun-13 05:00N 36°50' W 122°31'4 8.6
2017-Jun-13 04:30N 36°46' W 122°29'4 8.5
2017-Jun-13 04:00N 36°42' W 122°27'4 8.1
2017-Jun-13 03:30N 36°38' W 122°25'4 8.0
2017-Jun-13 03:00N 36°34' W 122°24'4 8.5
2017-Jun-13 02:30N 36°30' W 122°22'4 8.8
2017-Jun-13 02:00N 36°26' W 122°19'4 8.8
2017-Jun-13 01:30N 36°22' W 122°17'4 8.7
2017-Jun-13 01:00N 36°18' W 122°15'5 9.1
2017-Jun-13 00:30N 36°14' W 122°13'4 8.9
2017-Jun-13 00:00N 36°10' W 122°10'4 8.9
2017-Jun-12 23:30N 36°06' W 122°08'5 9.2
2017-Jun-12 23:00N 36°02' W 122°06'5 9.1
2017-Jun-12 22:30N 35°58' W 122°03'4 8.6
2017-Jun-12 22:00N 35°54' W 122°01'4 8.8
2017-Jun-12 21:30N 35°50' W 121°59'4 8.9
2017-Jun-12 21:00N 35°46' W 121°56'510.7
2017-Jun-12 20:30N 35°41' W 121°53'510.2
2017-Jun-12 20:00N 35°37' W 121°49'4 8.5
2017-Jun-12 19:30N 35°33' W 121°46'4 8.0
2017-Jun-12 18:59N 35°30' W 121°44'4 8.4
2017-Jun-12 18:30N 35°27' W 121°41'4 8.7
2017-Jun-12 18:00N 35°23' W 121°38'4 8.8
2017-Jun-12 17:30N 35°19' W 121°35'4 8.7
2017-Jun-12 17:00N 35°16' W 121°32'4 8.7
2017-Jun-12 16:30N 35°12' W 121°30'3 6.8
2017-Jun-12 16:00N 35°09' W 121°28'4 7.6
2017-Jun-12 15:30N 35°05' W 121°26'4 7.2
2017-Jun-12 15:00N 35°02' W 121°24'3 6.1
2017-Jun-12 14:30N 34°60' W 121°22'8 7.8
2017-Jun-12 13:30N 34°53' W 121°18'4 7.6
2017-Jun-12 13:00N 34°50' W 121°15'3 6.4
2017-Jun-12 12:28N 34°47' W 121°12'3 6.8
2017-Jun-12 12:00N 34°45' W 121°09'4 7.4
2017-Jun-12 11:30N 34°42' W 121°06'4 8.0
2017-Jun-12 11:00N 34°39' W 121°03'3 6.3
2017-Jun-12 10:30N 34°37' W 121°00'4 7.6
2017-Jun-12 10:00N 34°34' W 120°57'4 7.6
2017-Jun-12 09:30N 34°31' W 120°55'3 5.0
2017-Jun-12 09:00N 34°29' W 120°53'3 6.4
2017-Jun-12 08:30N 34°26' W 120°51'4 8.3
2017-Jun-12 08:00N 34°25' W 120°46'4 7.6
2017-Jun-12 07:30N 34°24' W 120°42'3 6.6
2017-Jun-12 07:00N 34°23' W 120°38'4 7.8
2017-Jun-12 06:30N 34°22' W 120°33'4 7.5
2017-Jun-12 05:58N 34°21' W 120°28'4 7.9
2017-Jun-12 05:28N 34°20' W 120°24'3 7.1
2017-Jun-12 05:00N 34°19' W 120°20'4 7.1
2017-Jun-12 04:30N 34°18' W 120°16'3 6.9
2017-Jun-12 04:00N 34°17' W 120°12'4 7.7
2017-Jun-12 03:29N 34°16' W 120°07'3 6.0
2017-Jun-12 03:00N 34°15' W 120°04'4 7.9
2017-Jun-12 02:30N 34°14' W 119°59'4 7.8
2017-Jun-12 01:58N 34°13' W 119°54'3 6.4
2017-Jun-12 01:29N 34°12' W 119°51'3 6.3
2017-Jun-12 00:59N 34°12' W 119°47'3 6.5
2017-Jun-12 00:30N 34°11' W 119°43'3 6.9
2017-Jun-12 00:00N 34°10' W 119°39'4 7.7
2017-Jun-11 23:28N 34°09' W 119°35'4 8.8
2017-Jun-11 23:00N 34°08' W 119°30'3 6.7
2017-Jun-11 22:30N 34°07' W 119°26'3 6.9
2017-Jun-11 22:00N 34°06' W 119°22'4 7.4
2017-Jun-11 21:30N 34°05' W 119°18'3 6.7
2017-Jun-11 20:59N 34°04' W 119°14'5 7.9
2017-Jun-11 20:24N 34°01' W 119°09'5 8.9
2017-Jun-11 19:52N 33°59' W 119°04'3 7.5
2017-Jun-11 19:27N 33°57' W 119°00'4 8.7
2017-Jun-11 18:59N 33°55' W 118°56'4 7.6
2017-Jun-11 18:30N 33°53' W 118°52'4 7.4
2017-Jun-11 18:00N 33°52' W 118°49'4 7.9
2017-Jun-11 17:30N 33°50' W 118°45'4 7.7
2017-Jun-11 17:00N 33°48' W 118°40'4 7.8
2017-Jun-11 16:30N 33°46' W 118°36'4 7.9
2017-Jun-11 16:00N 33°44' W 118°32'4 7.7
2017-Jun-11 15:30N 33°42' W 118°28'4 7.9
2017-Jun-11 15:00N 33°40' W 118°24'9 8.1
2017-Jun-11 13:51N 33°38' W 118°13'2 7.0
2017-Jun-11 13:31N 33°41' W 118°12'4 7.1
2017-Jun-11 13:00N 33°44' W 118°12'1 1.3
2017-Jun-11 12:30N 33°45' W 118°12'0 0.0
2017-Jun-11 11:51N 33°45' W 118°12'0 0.1
2017-Jun-11 11:27N 33°45' W 118°12'0 0.1
2017-Jun-11 10:57N 33°45' W 118°12'0 0.0
2017-Jun-11 10:27N 33°45' W 118°12'0 0.0
2017-Jun-11 03:21N 33°45' W 118°12'0 0.1
2017-Jun-11 02:57N 33°45' W 118°12'0 0.0
2017-Jun-11 02:27N 33°45' W 118°12'0 0.1
2017-Jun-11 01:51N 33°45' W 118°12'0 0.0
2017-Jun-11 01:27N 33°45' W 118°12'0 0.1
2017-Jun-11 01:00N 33°45' W 118°12'0 0.1
2017-Jun-11 00:27N 33°45' W 118°12'0 0.0
2017-Jun-10 23:57N 33°45' W 118°12'0 0.1
2017-Jun-10 23:21N 33°45' W 118°12'0 0.0
2017-Jun-10 13:21N 33°45' W 118°12'0 0.0
2017-Jun-10 12:57N 33°45' W 118°12'0 0.0
2017-Jun-10 11:45N 33°45' W 118°12'0 0.1
2017-Jun-10 11:21N 33°45' W 118°12'0 0.1
2017-Jun-10 10:57N 33°45' W 118°12'0 0.0
2017-Jun-10 01:21N 33°45' W 118°12'0 0.0
2017-Jun-10 01:00N 33°45' W 118°12'0 0.0
2017-Jun-10 00:30N 33°45' W 118°12'0 0.0
2017-Jun-09 23:57N 33°45' W 118°12'0 0.0
2017-Jun-09 23:27N 33°45' W 118°12'0 0.0
2017-Jun-09 22:51N 33°45' W 118°12'0 0.0
2017-Jun-09 22:27N 33°45' W 118°12'0 0.0
2017-Jun-09 21:51N 33°45' W 118°12'0 0.0
2017-Jun-09 21:30N 33°45' W 118°12'0 0.1
2017-Jun-09 21:00N 33°45' W 118°12'0 0.1
2017-Jun-09 20:30N 33°45' W 118°12'0 0.0
2017-Jun-09 18:27N 33°45' W 118°12'0 0.1
2017-Jun-09 18:00N 33°45' W 118°12'0 0.1
2017-Jun-09 17:15N 33°45' W 118°12'0 0.0
2017-Jun-09 15:51N 33°45' W 118°12'0 0.0
2017-Jun-09 15:27N 33°45' W 118°12'0 0.0
2017-Jun-09 14:57N 33°45' W 118°12'0 0.0
2017-Jun-09 14:30N 33°45' W 118°12'0 0.0
2017-Jun-09 13:21N 33°45' W 118°12'0 0.1
2017-Jun-09 13:00N 33°45' W 118°12'0 0.0
2017-Jun-09 12:30N 33°45' W 118°12'0 0.1
2017-Jun-09 12:00N 33°45' W 118°12'0 0.1
2017-Jun-09 11:27N 33°45' W 118°12'0 0.1
2017-Jun-09 10:57N 33°45' W 118°12'0 0.1
2017-Jun-09 10:30N 33°45' W 118°12'0 0.0
2017-Jun-09 09:57N 33°45' W 118°12'0 0.0
2017-Jun-09 09:30N 33°45' W 118°12'0 0.0
2017-Jun-09 08:51N 33°45' W 118°12'0 0.0
2017-Jun-09 08:30N 33°45' W 118°12'0 0.1
2017-Jun-09 08:00N 33°45' W 118°12'0 0.0
2017-Jun-09 07:27N 33°45' W 118°12'0 0.0
2017-Jun-09 06:59N 33°45' W 118°12'0 0.0
2017-Jun-09 06:09N 33°45' W 118°12'0 0.2
2017-Jun-09 05:57N 33°45' W 118°12'0 0.0
2017-Jun-09 05:30N 33°45' W 118°12'0 0.1
2017-Jun-09 05:00N 33°45' W 118°12'0 0.0
2017-Jun-09 04:27N 33°45' W 118°12'0 0.1
2017-Jun-09 03:51N 33°45' W 118°12'0 0.1
2017-Jun-09 03:14N 33°45' W 118°12'0 0.0
2017-Jun-09 02:57N 33°45' W 118°12'0 0.0
2017-Jun-09 02:26N 33°45' W 118°12'0 0.0
2017-Jun-09 01:45N 33°45' W 118°12'0 0.0
2017-Jun-09 01:27N 33°45' W 118°12'0 0.0
2017-Jun-09 00:57N 33°45' W 118°12'0 0.0
2017-Jun-09 00:24N 33°45' W 118°12'0 0.0
2017-Jun-08 23:59N 33°45' W 118°12'0 0.0
2017-Jun-08 23:30N 33°45' W 118°12'0 0.1
2017-Jun-08 23:00N 33°45' W 118°12'0 0.1
2017-Jun-08 22:27N 33°45' W 118°12'0 0.1
2017-Jun-08 22:00N 33°45' W 118°12'0 0.1
2017-Jun-08 21:26N 33°45' W 118°12'0 0.1
2017-Jun-08 20:54N 33°45' W 118°12'0 0.0
2017-Jun-08 20:21N 33°45' W 118°12'0 0.0
2017-Jun-08 19:57N 33°45' W 118°12'0 0.0
2017-Jun-08 19:27N 33°45' W 118°12'0 0.0
2017-Jun-08 18:57N 33°45' W 118°12'0 0.0
2017-Jun-08 17:50N 33°45' W 118°12'0 0.0
2017-Jun-08 16:21N 33°45' W 118°12'0 0.1
2017-Jun-08 15:57N 33°45' W 118°12'0 0.1
2017-Jun-08 15:21N 33°45' W 118°12'0 0.1
2017-Jun-08 12:07N 33°44' W 118°12'1 3.1
2017-Jun-08 11:52N 33°44' W 118°12'3 8.7
2017-Jun-08 11:30N 33°41' W 118°11'3 6.1
2017-Jun-08 11:00N 33°38' W 118°11'3 6.1
2017-Jun-08 10:30N 33°37' W 118°14'4 7.3
2017-Jun-08 10:01N 33°36' W 118°19'4 8.0
2017-Jun-08 09:31N 33°37' W 118°23'5 9.9
2017-Jun-08 09:01N 33°40' W 118°28'5 9.7
2017-Jun-08 08:31N 33°42' W 118°33'5 9.6
2017-Jun-08 08:00N 33°45' W 118°39'5 9.9
2017-Jun-08 07:30N 33°47' W 118°44'5 9.7
2017-Jun-08 07:00N 33°49' W 118°49'5 9.5
2017-Jun-08 06:30N 33°52' W 118°54'5 9.7
2017-Jun-08 06:01N 33°54' W 118°59'5 9.6
2017-Jun-08 05:31N 33°56' W 119°04'5 9.6
2017-Jun-08 05:00N 33°59' W 119°09'5 9.6
2017-Jun-08 04:28N 34°01' W 119°14'4 9.4
2017-Jun-08 04:00N 34°03' W 119°19'5 9.2
2017-Jun-08 03:30N 34°04' W 119°24'5 9.6
2017-Jun-08 03:00N 34°06' W 119°30'4 7.2
2017-Jun-08 02:31N 34°06' W 119°34'4 7.6
2017-Jun-08 02:00N 34°07' W 119°39'4 8.3
2017-Jun-08 01:31N 34°08' W 119°43'510.2
2017-Jun-08 00:59N 34°10' W 119°50'713.0
2017-Jun-08 00:29N 34°12' W 119°57'612.8
2017-Jun-08 00:00N 34°13' W 120°04'612.6
2017-Jun-07 23:30N 34°15' W 120°12'612.4
2017-Jun-07 23:00N 34°17' W 120°19'611.6
2017-Jun-07 22:29N 34°18' W 120°26'510.3
2017-Jun-07 22:00N 34°20' W 120°32'5 9.3
2017-Jun-07 21:30N 34°21' W 120°37'5 9.2
2017-Jun-07 21:00N 34°22' W 120°43'5 9.5
2017-Jun-07 20:30N 34°23' W 120°48'510.6
2017-Jun-07 20:00N 34°24' W 120°54'612.8
2017-Jun-07 19:30N 34°24' W 121°02'612.3
2017-Jun-07 19:00N 34°24' W 121°10'510.4
2017-Jun-07 18:30N 34°24' W 121°16'711.8
2017-Jun-07 17:57N 34°24' W 121°24'611.6
2017-Jun-07 17:23N 34°24' W 121°32'1011.9
2017-Jun-07 16:32N 34°24' W 121°44'111.8
2017-Jun-07 16:29N 34°24' W 121°45'1012.2
2017-Jun-07 15:40N 34°24' W 121°57'212.3
2017-Jun-07 15:30N 34°24' W 121°59'612.5
2017-Jun-07 15:00N 34°24' W 122°07'1312.9
2017-Jun-07 14:00N 34°24' W 122°23'713.2
2017-Jun-07 13:30N 34°24' W 122°30'712.9
2017-Jun-07 13:00N 34°24' W 122°38'612.8
2017-Jun-07 12:30N 34°24' W 122°46'612.6
2017-Jun-07 12:01N 34°24' W 122°54'612.4
2017-Jun-07 11:30N 34°24' W 123°01'612.3
2017-Jun-07 11:00N 34°24' W 123°09'612.4
2017-Jun-07 10:30N 34°24' W 123°16'612.4
2017-Jun-07 10:00N 34°24' W 123°24'612.4
2017-Jun-07 09:30N 34°24' W 123°31'612.3
2017-Jun-07 09:00N 34°24' W 123°39'612.3
2017-Jun-07 08:30N 34°24' W 123°46'612.3
2017-Jun-07 08:00N 34°24' W 123°53'612.4
2017-Jun-07 07:29N 34°24' W 124°01'612.7
2017-Jun-07 07:00N 34°24' W 124°09'612.5
2017-Jun-07 06:30N 34°24' W 124°16'612.1
2017-Jun-07 06:00N 34°24' W 124°24'612.0
2017-Jun-07 05:30N 34°24' W 124°31'612.3
2017-Jun-07 05:00N 34°24' W 124°38'612.4
2017-Jun-07 04:30N 34°24' W 124°46'612.2
2017-Jun-07 04:00N 34°24' W 124°53'611.9
2017-Jun-07 03:30N 34°24' W 125°00'711.8
2017-Jun-07 02:57N 34°24' W 125°08'611.8
2017-Jun-07 02:27N 34°25' W 125°15'511.9
2017-Jun-07 02:00N 34°25' W 125°22'712.4
2017-Jun-07 01:29N 34°29' W 125°29'612.4
2017-Jun-07 01:00N 34°31' W 125°35'612.4
2017-Jun-07 00:30N 34°34' W 125°41'612.5
2017-Jun-07 00:00N 34°38' W 125°48'612.5
2017-Jun-06 23:30N 34°41' W 125°54'612.5
2017-Jun-06 23:00N 34°44' W 126°01'612.4
2017-Jun-06 22:30N 34°47' W 126°07'612.7
2017-Jun-06 22:00N 34°51' W 126°14'712.9
2017-Jun-06 21:30N 34°54' W 126°21'913.0
2017-Jun-06 20:48N 34°58' W 126°30'412.9
2017-Jun-06 20:29N 35°00' W 126°35'812.9
2017-Jun-06 19:54N 35°04' W 126°43'612.9
2017-Jun-06 19:27N 35°07' W 126°49'612.8
2017-Jun-06 19:00N 35°10' W 126°55'1812.9
2017-Jun-06 17:36N 35°19' W 127°14'1012.9
2017-Jun-06 16:51N 35°24' W 127°24'1512.7
2017-Jun-06 15:41N 35°32' W 127°40'2712.4
2017-Jun-06 13:28N 35°46' W 128°09'  
Track history (hours):
 
Tides and Currents Weather Stations Pressure Air Temp Water Temp Dewpoint Dewpoint Depression Visibility Wind Speed Wind Dir Waves Ship Positions

Bangkok Bridge

Last reported at 2017-Jun-15 13:08 UTC. Time now 2017-Jun-22 14:27 UTC.
Position N 38°10' W 125°13'.

Length 267 m; draft 11.8 m.

Type: Ship (hazmat cat A). MMSI: 353368000.

Date/timePositionNaut miles runAvg speedWind from/ knotsBaromVisibWave heightAir tempDewpointWater temp
2017-Jun-15 13:08N 38°10' W 125°13'2012.3
2017-Jun-15 11:31N 38°10' W 124°48'011.3
2017-Jun-15 11:30N 38°10' W 124°48'712.8
2017-Jun-15 11:00N 38°10' W 124°40'812.0
2017-Jun-15 10:18N 38°10' W 124°29'1011.7
2017-Jun-15 09:28N 38°10' W 124°17'1011.3
2017-Jun-15 08:34N 38°10' W 124°04'411.0
2017-Jun-15 08:14N 38°10' W 123°59'310.9
2017-Jun-15 08:00N 38°10' W 123°56'611.3
2017-Jun-15 07:30N 38°10' W 123°49'612.1
2017-Jun-15 07:00N 38°10' W 123°41'611.9
2017-Jun-15 06:30N 38°10' W 123°33'611.2
2017-Jun-15 06:00N 38°10' W 123°26'510.1
2017-Jun-15 05:30N 38°09' W 123°20'5 9.4
2017-Jun-15 05:00N 38°06' W 123°16'5 9.1
2017-Jun-15 04:30N 38°02' W 123°12'5 9.3
2017-Jun-15 04:00N 37°58' W 123°09'5 9.2
2017-Jun-15 03:30N 37°56' W 123°03'5 9.5
2017-Jun-15 03:00N 37°54' W 122°58'5 9.7
2017-Jun-15 02:30N 37°51' W 122°53'5 9.9
2017-Jun-15 02:00N 37°49' W 122°47'510.1
2017-Jun-15 01:30N 37°46' W 122°42'4 8.4
2017-Jun-15 01:00N 37°46' W 122°37'713.6
2017-Jun-15 00:30N 37°49' W 122°29'4 8.8
2017-Jun-15 00:00N 37°49' W 122°23'3 6.1
2017-Jun-14 23:30N 37°49' W 122°20'0 0.3
2017-Jun-14 23:00N 37°49' W 122°20'0 0.0
2017-Jun-14 22:30N 37°49' W 122°20'0 0.0
2017-Jun-14 22:00N 37°49' W 122°20'0 0.0
2017-Jun-14 21:30N 37°49' W 122°20'0 0.0
2017-Jun-14 21:00N 37°49' W 122°20'0 0.0
2017-Jun-14 20:30N 37°49' W 122°20'0 0.0
2017-Jun-14 20:00N 37°49' W 122°20'0 0.0
2017-Jun-14 19:30N 37°49' W 122°20'0 0.0
2017-Jun-14 19:00N 37°49' W 122°20'0 0.0
2017-Jun-14 18:30N 37°49' W 122°20'0 0.0
2017-Jun-14 18:00N 37°49' W 122°20'0 0.0
2017-Jun-14 17:30N 37°49' W 122°20'0 0.0
2017-Jun-14 17:00N 37°49' W 122°20'0 0.0
2017-Jun-14 16:30N 37°49' W 122°20'0 0.0
2017-Jun-14 16:00N 37°49' W 122°20'0 0.0
2017-Jun-14 15:30N 37°49' W 122°20'0 0.0
2017-Jun-14 15:00N 37°49' W 122°20'0 0.0
2017-Jun-14 14:00N 37°49' W 122°20'0 0.0
2017-Jun-14 13:30N 37°49' W 122°20'0 0.0
2017-Jun-14 13:00N 37°49' W 122°20'0 0.0
2017-Jun-14 12:30N 37°49' W 122°20'0 0.0
2017-Jun-14 12:00N 37°49' W 122°20'0 0.0
2017-Jun-14 11:30N 37°49' W 122°20'0 0.0
2017-Jun-14 11:00N 37°49' W 122°20'0 0.0
2017-Jun-14 10:30N 37°49' W 122°20'0 0.0
2017-Jun-14 10:00N 37°49' W 122°20'0 0.0
2017-Jun-14 09:30N 37°49' W 122°20'0 0.0
2017-Jun-14 09:00N 37°49' W 122°20'0 0.0
2017-Jun-14 08:30N 37°49' W 122°20'0 0.0
2017-Jun-14 08:00N 37°49' W 122°20'0 0.0
2017-Jun-14 07:30N 37°49' W 122°20'0 0.0
2017-Jun-14 07:00N 37°49' W 122°20'0 0.0
2017-Jun-14 06:30N 37°49' W 122°20'0 0.0
2017-Jun-14 06:00N 37°49' W 122°20'0 0.0
2017-Jun-14 05:30N 37°49' W 122°20'0 0.0
2017-Jun-14 05:00N 37°49' W 122°20'0 0.0
2017-Jun-14 04:30N 37°49' W 122°20'0 0.0
2017-Jun-14 04:00N 37°49' W 122°20'0 0.0
2017-Jun-14 03:30N 37°49' W 122°20'0 0.0
2017-Jun-14 03:00N 37°49' W 122°20'0 0.0
2017-Jun-14 02:30N 37°49' W 122°20'0 0.0
2017-Jun-14 02:00N 37°49' W 122°20'0 0.0
2017-Jun-14 01:30N 37°49' W 122°20'0 0.0
2017-Jun-14 01:00N 37°49' W 122°20'0 0.0
2017-Jun-14 00:30N 37°49' W 122°20'0 0.0
2017-Jun-14 00:00N 37°49' W 122°20'0 0.0
2017-Jun-13 23:30N 37°49' W 122°20'0 0.0
2017-Jun-13 23:00N 37°49' W 122°20'0 0.0
2017-Jun-13 22:30N 37°49' W 122°20'0 0.0
2017-Jun-13 22:00N 37°49' W 122°20'0 0.0
2017-Jun-13 21:30N 37°49' W 122°20'0 0.0
2017-Jun-13 21:00N 37°49' W 122°20'0 0.0
2017-Jun-13 20:30N 37°49' W 122°20'0 0.0
2017-Jun-13 20:00N 37°49' W 122°20'0 0.0
2017-Jun-13 19:30N 37°49' W 122°20'0 0.0
2017-Jun-13 19:00N 37°49' W 122°20'0 0.0
2017-Jun-13 18:30N 37°49' W 122°20'0 0.0
2017-Jun-13 18:00N 37°49' W 122°20'0 0.0
2017-Jun-13 17:30N 37°49' W 122°20'0 0.0
2017-Jun-13 17:00N 37°49' W 122°20'0 0.0
2017-Jun-13 16:30N 37°49' W 122°20'0 0.0
2017-Jun-13 16:00N 37°49' W 122°20'0 0.0
2017-Jun-13 15:30N 37°49' W 122°20'0 0.0
2017-Jun-13 15:00N 37°49' W 122°20'0 0.0
2017-Jun-13 14:30N 37°49' W 122°20'2 1.9
2017-Jun-13 13:30N 37°48' W 122°22'4 8.7
2017-Jun-13 13:00N 37°49' W 122°27'510.7
2017-Jun-13 12:31N 37°47' W 122°34'713.3
2017-Jun-13 12:00N 37°44' W 122°41'3 6.1
2017-Jun-13 11:30N 37°41' W 122°41'4 7.9
2017-Jun-13 11:00N 37°37' W 122°40'4 8.0
2017-Jun-13 10:30N 37°33' W 122°40'4 8.4
2017-Jun-13 10:00N 37°29' W 122°40'4 7.9
2017-Jun-13 09:30N 37°25' W 122°40'4 7.8
2017-Jun-13 09:00N 37°21' W 122°40'4 7.3
2017-Jun-13 08:30N 37°17' W 122°40'4 7.5
2017-Jun-13 08:00N 37°14' W 122°40'4 8.1
2017-Jun-13 07:30N 37°09' W 122°40'4 8.0
2017-Jun-13 07:00N 37°06' W 122°39'4 8.2
2017-Jun-13 06:30N 37°02' W 122°37'4 8.5
2017-Jun-13 06:00N 36°58' W 122°35'4 8.8
2017-Jun-13 05:30N 36°54' W 122°33'5 8.9
2017-Jun-13 05:00N 36°50' W 122°31'4 8.6
2017-Jun-13 04:30N 36°46' W 122°29'4 8.5
2017-Jun-13 04:00N 36°42' W 122°27'4 8.1
2017-Jun-13 03:30N 36°38' W 122°25'4 8.0
2017-Jun-13 03:00N 36°34' W 122°24'4 8.5
2017-Jun-13 02:30N 36°30' W 122°22'4 8.8
2017-Jun-13 02:00N 36°26' W 122°19'4 8.8
2017-Jun-13 01:30N 36°22' W 122°17'4 8.7
2017-Jun-13 01:00N 36°18' W 122°15'5 9.1
2017-Jun-13 00:30N 36°14' W 122°13'4 8.9
2017-Jun-13 00:00N 36°10' W 122°10'4 8.9
2017-Jun-12 23:30N 36°06' W 122°08'5 9.2
2017-Jun-12 23:00N 36°02' W 122°06'5 9.1
2017-Jun-12 22:30N 35°58' W 122°03'4 8.6
2017-Jun-12 22:00N 35°54' W 122°01'4 8.8
2017-Jun-12 21:30N 35°50' W 121°59'4 8.9
2017-Jun-12 21:00N 35°46' W 121°56'510.7
2017-Jun-12 20:30N 35°41' W 121°53'510.2
2017-Jun-12 20:00N 35°37' W 121°49'4 8.5
2017-Jun-12 19:30N 35°33' W 121°46'4 8.0
2017-Jun-12 18:59N 35°30' W 121°44'4 8.4
2017-Jun-12 18:30N 35°27' W 121°41'4 8.7
2017-Jun-12 18:00N 35°23' W 121°38'4 8.8
2017-Jun-12 17:30N 35°19' W 121°35'4 8.7
2017-Jun-12 17:00N 35°16' W 121°32'4 8.7
2017-Jun-12 16:30N 35°12' W 121°30'3 6.8
2017-Jun-12 16:00N 35°09' W 121°28'4 7.6
2017-Jun-12 15:30N 35°05' W 121°26'4 7.2
2017-Jun-12 15:00N 35°02' W 121°24'3 6.1
2017-Jun-12 14:30N 34°60' W 121°22'8 7.8
2017-Jun-12 13:30N 34°53' W 121°18'4 7.6
2017-Jun-12 13:00N 34°50' W 121°15'3 6.4
2017-Jun-12 12:28N 34°47' W 121°12'3 6.8
2017-Jun-12 12:00N 34°45' W 121°09'4 7.4
2017-Jun-12 11:30N 34°42' W 121°06'4 8.0
2017-Jun-12 11:00N 34°39' W 121°03'3 6.3
2017-Jun-12 10:30N 34°37' W 121°00'4 7.6
2017-Jun-12 10:00N 34°34' W 120°57'4 7.6
2017-Jun-12 09:30N 34°31' W 120°55'3 5.0
2017-Jun-12 09:00N 34°29' W 120°53'3 6.4
2017-Jun-12 08:30N 34°26' W 120°51'4 8.3
2017-Jun-12 08:00N 34°25' W 120°46'4 7.6
2017-Jun-12 07:30N 34°24' W 120°42'3 6.6
2017-Jun-12 07:00N 34°23' W 120°38'4 7.8
2017-Jun-12 06:30N 34°22' W 120°33'4 7.5
2017-Jun-12 05:58N 34°21' W 120°28'4 7.9
2017-Jun-12 05:28N 34°20' W 120°24'3 7.1
2017-Jun-12 05:00N 34°19' W 120°20'4 7.1
2017-Jun-12 04:30N 34°18' W 120°16'3 6.9
2017-Jun-12 04:00N 34°17' W 120°12'4 7.7
2017-Jun-12 03:29N 34°16' W 120°07'3 6.0
2017-Jun-12 03:00N 34°15' W 120°04'4 7.9
2017-Jun-12 02:30N 34°14' W 119°59'4 7.8
2017-Jun-12 01:58N 34°13' W 119°54'3 6.4
2017-Jun-12 01:29N 34°12' W 119°51'3 6.3
2017-Jun-12 00:59N 34°12' W 119°47'3 6.5
2017-Jun-12 00:30N 34°11' W 119°43'3 6.9
2017-Jun-12 00:00N 34°10' W 119°39'4 7.7
2017-Jun-11 23:28N 34°09' W 119°35'4 8.8
2017-Jun-11 23:00N 34°08' W 119°30'3 6.7
2017-Jun-11 22:30N 34°07' W 119°26'3 6.9
2017-Jun-11 22:00N 34°06' W 119°22'4 7.4
2017-Jun-11 21:30N 34°05' W 119°18'3 6.7
2017-Jun-11 20:59N 34°04' W 119°14'5 7.9
2017-Jun-11 20:24N 34°01' W 119°09'5 8.9
2017-Jun-11 19:52N 33°59' W 119°04'3 7.5
2017-Jun-11 19:27N 33°57' W 119°00'4 8.7
2017-Jun-11 18:59N 33°55' W 118°56'4 7.6
2017-Jun-11 18:30N 33°53' W 118°52'4 7.4
2017-Jun-11 18:00N 33°52' W 118°49'4 7.9
2017-Jun-11 17:30N 33°50' W 118°45'4 7.7
2017-Jun-11 17:00N 33°48' W 118°40'4 7.8
2017-Jun-11 16:30N 33°46' W 118°36'4 7.9
2017-Jun-11 16:00N 33°44' W 118°32'4 7.7
2017-Jun-11 15:30N 33°42' W 118°28'4 7.9
2017-Jun-11 15:00N 33°40' W 118°24'9 8.1
2017-Jun-11 13:51N 33°38' W 118°13'2 7.0
2017-Jun-11 13:31N 33°41' W 118°12'4 7.1
2017-Jun-11 13:00N 33°44' W 118°12'1 1.3
2017-Jun-11 12:30N 33°45' W 118°12'0 0.0
2017-Jun-11 11:51N 33°45' W 118°12'0 0.1
2017-Jun-11 11:27N 33°45' W 118°12'0 0.1
2017-Jun-11 10:57N 33°45' W 118°12'0 0.0
2017-Jun-11 10:27N 33°45' W 118°12'0 0.0
2017-Jun-11 03:21N 33°45' W 118°12'0 0.1
2017-Jun-11 02:57N 33°45' W 118°12'0 0.0
2017-Jun-11 02:27N 33°45' W 118°12'0 0.1
2017-Jun-11 01:51N 33°45' W 118°12'0 0.0
2017-Jun-11 01:27N 33°45' W 118°12'0 0.1
2017-Jun-11 01:00N 33°45' W 118°12'0 0.1
2017-Jun-11 00:27N 33°45' W 118°12'0 0.0
2017-Jun-10 23:57N 33°45' W 118°12'0 0.1
2017-Jun-10 23:21N 33°45' W 118°12'0 0.0
2017-Jun-10 13:21N 33°45' W 118°12'0 0.0
2017-Jun-10 12:57N 33°45' W 118°12'0 0.0
2017-Jun-10 11:45N 33°45' W 118°12'0 0.1
2017-Jun-10 11:21N 33°45' W 118°12'0 0.1
2017-Jun-10 10:57N 33°45' W 118°12'0 0.0
2017-Jun-10 01:21N 33°45' W 118°12'0 0.0
2017-Jun-10 01:00N 33°45' W 118°12'0 0.0
2017-Jun-10 00:30N 33°45' W 118°12'0 0.0
2017-Jun-09 23:57N 33°45' W 118°12'0 0.0
2017-Jun-09 23:27N 33°45' W 118°12'0 0.0
2017-Jun-09 22:51N 33°45' W 118°12'0 0.0
2017-Jun-09 22:27N 33°45' W 118°12'0 0.0
2017-Jun-09 21:51N 33°45' W 118°12'0 0.0
2017-Jun-09 21:30N 33°45' W 118°12'0 0.1
2017-Jun-09 21:00N 33°45' W 118°12'0 0.1
2017-Jun-09 20:30N 33°45' W 118°12'0 0.0
2017-Jun-09 18:27N 33°45' W 118°12'0 0.1
2017-Jun-09 18:00N 33°45' W 118°12'0 0.1
2017-Jun-09 17:15N 33°45' W 118°12'0 0.0
2017-Jun-09 15:51N 33°45' W 118°12'0 0.0
2017-Jun-09 15:27N 33°45' W 118°12'0 0.0
2017-Jun-09 14:57N 33°45' W 118°12'0 0.0
2017-Jun-09 14:30N 33°45' W 118°12'0 0.0
2017-Jun-09 13:21N 33°45' W 118°12'0 0.1
2017-Jun-09 13:00N 33°45' W 118°12'0 0.0
2017-Jun-09 12:30N 33°45' W 118°12'0 0.1
2017-Jun-09 12:00N 33°45' W 118°12'0 0.1
2017-Jun-09 11:27N 33°45' W 118°12'0 0.1
2017-Jun-09 10:57N 33°45' W 118°12'0 0.1
2017-Jun-09 10:30N 33°45' W 118°12'0 0.0
2017-Jun-09 09:57N 33°45' W 118°12'0 0.0
2017-Jun-09 09:30N 33°45' W 118°12'0 0.0
2017-Jun-09 08:51N 33°45' W 118°12'0 0.0
2017-Jun-09 08:30N 33°45' W 118°12'0 0.1
2017-Jun-09 08:00N 33°45' W 118°12'0 0.0
2017-Jun-09 07:27N 33°45' W 118°12'0 0.0
2017-Jun-09 06:59N 33°45' W 118°12'0 0.0
2017-Jun-09 06:09N 33°45' W 118°12'0 0.2
2017-Jun-09 05:57N 33°45' W 118°12'0 0.0
2017-Jun-09 05:30N 33°45' W 118°12'0 0.1
2017-Jun-09 05:00N 33°45' W 118°12'0 0.0
2017-Jun-09 04:27N 33°45' W 118°12'0 0.1
2017-Jun-09 03:51N 33°45' W 118°12'0 0.1
2017-Jun-09 03:14N 33°45' W 118°12'0 0.0
2017-Jun-09 02:57N 33°45' W 118°12'0 0.0
2017-Jun-09 02:26N 33°45' W 118°12'0 0.0
2017-Jun-09 01:45N 33°45' W 118°12'0 0.0
2017-Jun-09 01:27N 33°45' W 118°12'0 0.0
2017-Jun-09 00:57N 33°45' W 118°12'0 0.0
2017-Jun-09 00:24N 33°45' W 118°12'0 0.0
2017-Jun-08 23:59N 33°45' W 118°12'0 0.0
2017-Jun-08 23:30N 33°45' W 118°12'0 0.1
2017-Jun-08 23:00N 33°45' W 118°12'0 0.1
2017-Jun-08 22:27N 33°45' W 118°12'0 0.1
2017-Jun-08 22:00N 33°45' W 118°12'0 0.1
2017-Jun-08 21:26N 33°45' W 118°12'0 0.1
2017-Jun-08 20:54N 33°45' W 118°12'0 0.0
2017-Jun-08 20:21N 33°45' W 118°12'0 0.0
2017-Jun-08 19:57N 33°45' W 118°12'0 0.0
2017-Jun-08 19:27N 33°45' W 118°12'0 0.0
2017-Jun-08 18:57N 33°45' W 118°12'0 0.0
2017-Jun-08 17:50N 33°45' W 118°12'0 0.0
2017-Jun-08 16:21N 33°45' W 118°12'0 0.1
2017-Jun-08 15:57N 33°45' W 118°12'0 0.1
2017-Jun-08 15:21N 33°45' W 118°12'0 0.1
2017-Jun-08 12:07N 33°44' W 118°12'1 3.1
2017-Jun-08 11:52N 33°44' W 118°12'3 8.7
2017-Jun-08 11:30N 33°41' W 118°11'3 6.1
2017-Jun-08 11:00N 33°38' W 118°11'3 6.1
2017-Jun-08 10:30N 33°37' W 118°14'4 7.3
2017-Jun-08 10:01N 33°36' W 118°19'4 8.0
2017-Jun-08 09:31N 33°37' W 118°23'5 9.9
2017-Jun-08 09:01N 33°40' W 118°28'5 9.7
2017-Jun-08 08:31N 33°42' W 118°33'5 9.6
2017-Jun-08 08:00N 33°45' W 118°39'5 9.9
2017-Jun-08 07:30N 33°47' W 118°44'5 9.7
2017-Jun-08 07:00N 33°49' W 118°49'5 9.5
2017-Jun-08 06:30N 33°52' W 118°54'5 9.7
2017-Jun-08 06:01N 33°54' W 118°59'5 9.6
2017-Jun-08 05:31N 33°56' W 119°04'5 9.6
2017-Jun-08 05:00N 33°59' W 119°09'5 9.6
2017-Jun-08 04:28N 34°01' W 119°14'4 9.4
2017-Jun-08 04:00N 34°03' W 119°19'5 9.2
2017-Jun-08 03:30N 34°04' W 119°24'5 9.6
2017-Jun-08 03:00N 34°06' W 119°30'4 7.2
2017-Jun-08 02:31N 34°06' W 119°34'4 7.6
2017-Jun-08 02:00N 34°07' W 119°39'4 8.3
2017-Jun-08 01:31N 34°08' W 119°43'510.2
2017-Jun-08 00:59N 34°10' W 119°50'713.0
2017-Jun-08 00:29N 34°12' W 119°57'612.8
2017-Jun-08 00:00N 34°13' W 120°04'612.6
2017-Jun-07 23:30N 34°15' W 120°12'612.4
2017-Jun-07 23:00N 34°17' W 120°19'611.6
2017-Jun-07 22:29N 34°18' W 120°26'510.3
2017-Jun-07 22:00N 34°20' W 120°32'5 9.3
2017-Jun-07 21:30N 34°21' W 120°37'5 9.2
2017-Jun-07 21:00N 34°22' W 120°43'5 9.5
2017-Jun-07 20:30N 34°23' W 120°48'510.6
2017-Jun-07 20:00N 34°24' W 120°54'612.8
2017-Jun-07 19:30N 34°24' W 121°02'612.3
2017-Jun-07 19:00N 34°24' W 121°10'510.4
2017-Jun-07 18:30N 34°24' W 121°16'711.8
2017-Jun-07 17:57N 34°24' W 121°24'611.6
2017-Jun-07 17:23N 34°24' W 121°32'1011.9
2017-Jun-07 16:32N 34°24' W 121°44'111.8
2017-Jun-07 16:29N 34°24' W 121°45'1012.2
2017-Jun-07 15:40N 34°24' W 121°57'212.3
2017-Jun-07 15:30N 34°24' W 121°59'612.5
2017-Jun-07 15:00N 34°24' W 122°07'1312.9
2017-Jun-07 14:00N 34°24' W 122°23'713.2
2017-Jun-07 13:30N 34°24' W 122°30'712.9
2017-Jun-07 13:00N 34°24' W 122°38'612.8
2017-Jun-07 12:30N 34°24' W 122°46'612.6
2017-Jun-07 12:01N 34°24' W 122°54'612.4
2017-Jun-07 11:30N 34°24' W 123°01'612.3
2017-Jun-07 11:00N 34°24' W 123°09'612.4
2017-Jun-07 10:30N 34°24' W 123°16'612.4
2017-Jun-07 10:00N 34°24' W 123°24'612.4
2017-Jun-07 09:30N 34°24' W 123°31'612.3
2017-Jun-07 09:00N 34°24' W 123°39'612.3
2017-Jun-07 08:30N 34°24' W 123°46'612.3
2017-Jun-07 08:00N 34°24' W 123°53'612.4
2017-Jun-07 07:29N 34°24' W 124°01'612.7
2017-Jun-07 07:00N 34°24' W 124°09'612.5
2017-Jun-07 06:30N 34°24' W 124°16'612.1
2017-Jun-07 06:00N 34°24' W 124°24'612.0
2017-Jun-07 05:30N 34°24' W 124°31'612.3
2017-Jun-07 05:00N 34°24' W 124°38'612.4
2017-Jun-07 04:30N 34°24' W 124°46'612.2
2017-Jun-07 04:00N 34°24' W 124°53'611.9
2017-Jun-07 03:30N 34°24' W 125°00'711.8
2017-Jun-07 02:57N 34°24' W 125°08'611.8
2017-Jun-07 02:27N 34°25' W 125°15'511.9
2017-Jun-07 02:00N 34°25' W 125°22'712.4
2017-Jun-07 01:29N 34°29' W 125°29'612.4
2017-Jun-07 01:00N 34°31' W 125°35'612.4
2017-Jun-07 00:30N 34°34' W 125°41'612.5
2017-Jun-07 00:00N 34°38' W 125°48'612.5
2017-Jun-06 23:30N 34°41' W 125°54'612.5
2017-Jun-06 23:00N 34°44' W 126°01'612.4
2017-Jun-06 22:30N 34°47' W 126°07'612.7
2017-Jun-06 22:00N 34°51' W 126°14'712.9
2017-Jun-06 21:30N 34°54' W 126°21'913.0
2017-Jun-06 20:48N 34°58' W 126°30'412.9
2017-Jun-06 20:29N 35°00' W 126°35'812.9
2017-Jun-06 19:54N 35°04' W 126°43'612.9
2017-Jun-06 19:27N 35°07' W 126°49'612.8
2017-Jun-06 19:00N 35°10' W 126°55'1812.9
2017-Jun-06 17:36N 35°19' W 127°14'1012.9
2017-Jun-06 16:51N 35°24' W 127°24'1512.7
2017-Jun-06 15:41N 35°32' W 127°40'2712.4
2017-Jun-06 13:28N 35°46' W 128°09'  

Dump ship's entire track history